Terminal Aerodrome Forecast
Issued by NWS

Home | Current Version | Previous Version | Text Only | Print | Product List | Glossary On
Versions: 1 2 3 4 5 6 7 8 9 10 11 12 13 14 15 16 17 18 19 20 21 22 23 24 25 26 27 28 29 30
000
FTUS42 KCAE 260246 AAB
TAFOGB
TAF AMD
KOGB 260246Z 2603/2624 10004KT P6SM BKN035
     FM260900 05003KT 3SM BR SCT008 OVC015
     FM261100 05003KT 3SM BR OVC008
     FM261400 08005KT P6SM SCT008 BKN020
     FM261600 10007KT P6SM SCT020 BKN035=

USA.gov is the U.S. government's official web portal to all federal, state and local government web resources and services.